00:46
Airports
History
Links
Donate
Help keep this website running!
PayPal
Bitcoin
Information on this page is community maintained and may be outdated or inaccurate and is intended for reference only or PC simulator navigating!
Always use approved charts for navigating.
SDAA
Araras
Araras (SDAA)
Araras, São Paulo, Brazil
(C)
Lat/Lng:22° 20' 20.84" S / 47° 21' 33.36" W
-22.339121 / -47.359266
Elevation:2247'ft 685mMSL
ID / ICAO:SDAA
Runways:1
Longest:(12-30) 1,158.7m 3,802ft Asphalt
Controlled:Yes
Distance To
Airport ID:
Nearby WeatherUpdated 03-30-17 00:00 GMT
Nearby weather at SBYS, CAMPO FONTENELLE located 24.5 nautical miles from SDAA
Altimeter: 30.00
Visibility: 6.2 statute miles
Wind: 10 knots (180°)
Temp: 20°c 68°f
Humidity: 64.1%

METAR: SBYS 300000Z 18010KT CAVOK 20/13 Q1016

(Powered by phpweather)
Runway 12 / 30
Dimensions:1158.7 x 29.9m 3802' x 98'ft
Surface:Asphalt
Runway 12 [A]Runway 30 [B]
Heading:116°TH 296°TH
Lat:
Lng:
22° 20' 12.32"S
47° 21' 51.53"W
22° 20' 29.35"S
47° 21' 15.18"W
Google Map
Nearby Airports
(C) Leme 7.9 NM
SDLL N 349°
(C) Rio Claro 14.4 NM
SDRK WSW 244°
4 Limeira 18.6 NM
SDYM S 190°
4 Pirassununga 21.9 NM
SDPY N 349°
4 Edra do Brasil 22.9 NM
SDED WSW 252°
4 Fazenda Boa Vista 24.2 NM
SSMV NNW 327°
(C) CAMPO FONTENELLE 24.5 NM
SBYS (WX) N
VFR Chart
Flight Planning at SkyVector.com